sensor_id;sensor_type;location;lat;lon;timestamp;temperature;humidity
2749;DHT22;1382;52.142;11.618;2023-12-28T00:00:14;10.00;57.20
2749;DHT22;1382;52.142;11.618;2023-12-28T00:02:41;10.00;57.10
2749;DHT22;1382;52.142;11.618;2023-12-28T00:05:08;10.00;57.00
2749;DHT22;1382;52.142;11.618;2023-12-28T00:07:35;10.20;57.00
2749;DHT22;1382;52.142;11.618;2023-12-28T00:10:02;10.10;56.60
2749;DHT22;1382;52.142;11.618;2023-12-28T00:12:29;10.10;56.60
2749;DHT22;1382;52.142;11.618;2023-12-28T00:14:56;10.20;56.70
2749;DHT22;1382;52.142;11.618;2023-12-28T00:17:24;10.20;56.40
2749;DHT22;1382;52.142;11.618;2023-12-28T00:19:51;10.30;56.00
2749;DHT22;1382;52.142;11.618;2023-12-28T00:22:18;10.30;55.80
2749;DHT22;1382;52.142;11.618;2023-12-28T00:24:45;10.30;55.70
2749;DHT22;1382;52.142;11.618;2023-12-28T00:27:12;10.30;55.40
2749;DHT22;1382;52.142;11.618;2023-12-28T00:29:39;10.30;55.10
2749;DHT22;1382;52.142;11.618;2023-12-28T00:32:06;10.40;55.20
2749;DHT22;1382;52.142;11.618;2023-12-28T00:34:34;10.40;55.00
2749;DHT22;1382;52.142;11.618;2023-12-28T00:37:01;10.40;54.80
2749;DHT22;1382;52.142;11.618;2023-12-28T00:39:28;10.50;55.00
2749;DHT22;1382;52.142;11.618;2023-12-28T00:41:55;10.50;54.80
2749;DHT22;1382;52.142;11.618;2023-12-28T00:44:25;10.50;54.50
2749;DHT22;1382;52.142;11.618;2023-12-28T00:46:51;10.50;54.50
2749;DHT22;1382;52.142;11.618;2023-12-28T00:49:18;10.60;54.50
2749;DHT22;1382;52.142;11.618;2023-12-28T00:51:46;10.60;54.80
2749;DHT22;1382;52.142;11.618;2023-12-28T00:54:13;10.60;54.60
2749;DHT22;1382;52.142;11.618;2023-12-28T00:56:40;10.70;54.60
2749;DHT22;1382;52.142;11.618;2023-12-28T00:59:07;10.70;54.50
2749;DHT22;1382;52.142;11.618;2023-12-28T01:01:34;10.70;54.90
2749;DHT22;1382;52.142;11.618;2023-12-28T01:04:01;10.90;55.50
2749;DHT22;1382;52.142;11.618;2023-12-28T01:06:28;10.70;55.10
2749;DHT22;1382;52.142;11.618;2023-12-28T01:09:19;11.00;55.80
2749;DHT22;1382;52.142;11.618;2023-12-28T01:11:46;10.80;55.10
2749;DHT22;1382;52.142;11.618;2023-12-28T01:14:15;10.80;54.70
2749;DHT22;1382;52.142;11.618;2023-12-28T01:16:42;10.80;54.50
2749;DHT22;1382;52.142;11.618;2023-12-28T01:19:08;10.80;54.10
2749;DHT22;1382;52.142;11.618;2023-12-28T01:21:35;10.80;53.80
2749;DHT22;1382;52.142;11.618;2023-12-28T01:24:02;10.80;54.50
2749;DHT22;1382;52.142;11.618;2023-12-28T01:26:31;10.80;53.10
2749;DHT22;1382;52.142;11.618;2023-12-28T01:28:58;10.80;52.60
2749;DHT22;1382;52.142;11.618;2023-12-28T01:31:24;10.90;52.20
2749;DHT22;1382;52.142;11.618;2023-12-28T01:33:51;10.80;52.10
2749;DHT22;1382;52.142;11.618;2023-12-28T01:36:19;10.80;52.50
2749;DHT22;1382;52.142;11.618;2023-12-28T01:38:47;10.90;52.40
2749;DHT22;1382;52.142;11.618;2023-12-28T01:41:14;10.90;52.10
2749;DHT22;1382;52.142;11.618;2023-12-28T01:43:42;10.90;52.10
2749;DHT22;1382;52.142;11.618;2023-12-28T01:46:13;11.00;52.70
2749;DHT22;1382;52.142;11.618;2023-12-28T01:48:42;11.00;52.20
2749;DHT22;1382;52.142;11.618;2023-12-28T01:51:11;11.00;52.10
2749;DHT22;1382;52.142;11.618;2023-12-28T01:53:38;11.10;51.70
2749;DHT22;1382;52.142;11.618;2023-12-28T01:56:06;11.10;51.80
2749;DHT22;1382;52.142;11.618;2023-12-28T01:58:35;11.10;52.20
2749;DHT22;1382;52.142;11.618;2023-12-28T02:01:05;11.20;52.30
2749;DHT22;1382;52.142;11.618;2023-12-28T02:03:32;11.20;52.90
2749;DHT22;1382;52.142;11.618;2023-12-28T02:05:59;11.20;52.70
2749;DHT22;1382;52.142;11.618;2023-12-28T02:08:27;11.30;52.10
2749;DHT22;1382;52.142;11.618;2023-12-28T02:10:54;11.30;52.10
2749;DHT22;1382;52.142;11.618;2023-12-28T02:13:21;11.40;52.70
2749;DHT22;1382;52.142;11.618;2023-12-28T02:15:52;11.40;52.90
2749;DHT22;1382;52.142;11.618;2023-12-28T02:18:26;11.60;52.40
2749;DHT22;1382;52.142;11.618;2023-12-28T02:20:58;11.50;52.70
2749;DHT22;1382;52.142;11.618;2023-12-28T02:23:25;11.50;52.60
2749;DHT22;1382;52.142;11.618;2023-12-28T02:25:54;11.50;52.30
2749;DHT22;1382;52.142;11.618;2023-12-28T02:28:20;11.60;52.80
2749;DHT22;1382;52.142;11.618;2023-12-28T02:30:47;11.60;52.30
2749;DHT22;1382;52.142;11.618;2023-12-28T02:33:19;11.60;52.50
2749;DHT22;1382;52.142;11.618;2023-12-28T02:35:53;11.70;52.40
2749;DHT22;1382;52.142;11.618;2023-12-28T02:38:24;11.70;52.90
2749;DHT22;1382;52.142;11.618;2023-12-28T02:40:53;11.70;52.90
2749;DHT22;1382;52.142;11.618;2023-12-28T02:43:21;11.70;52.80
2749;DHT22;1382;52.142;11.618;2023-12-28T02:45:48;11.80;53.00
2749;DHT22;1382;52.142;11.618;2023-12-28T02:48:15;11.80;53.10
2749;DHT22;1382;52.142;11.618;2023-12-28T02:50:42;11.80;53.60
2749;DHT22;1382;52.142;11.618;2023-12-28T02:53:09;11.80;53.60
2749;DHT22;1382;52.142;11.618;2023-12-28T02:55:36;11.90;53.70
2749;DHT22;1382;52.142;11.618;2023-12-28T02:58:05;11.90;53.40
2749;DHT22;1382;52.142;11.618;2023-12-28T03:00:32;11.90;53.30
2749;DHT22;1382;52.142;11.618;2023-12-28T03:02:59;11.90;53.90
2749;DHT22;1382;52.142;11.618;2023-12-28T03:05:26;12.00;53.80
2749;DHT22;1382;52.142;11.618;2023-12-28T03:07:53;12.00;53.80
2749;DHT22;1382;52.142;11.618;2023-12-28T03:10:20;12.00;53.50
2749;DHT22;1382;52.142;11.618;2023-12-28T03:12:46;12.00;53.80
2749;DHT22;1382;52.142;11.618;2023-12-28T03:15:15;12.00;54.00
2749;DHT22;1382;52.142;11.618;2023-12-28T03:17:42;12.00;54.00
2749;DHT22;1382;52.142;11.618;2023-12-28T03:20:10;12.10;54.20
2749;DHT22;1382;52.142;11.618;2023-12-28T03:22:36;12.10;54.30
2749;DHT22;1382;52.142;11.618;2023-12-28T03:25:04;12.10;54.40
2749;DHT22;1382;52.142;11.618;2023-12-28T03:27:31;12.30;54.70
2749;DHT22;1382;52.142;11.618;2023-12-28T03:29:58;12.30;55.00
2749;DHT22;1382;52.142;11.618;2023-12-28T03:32:27;12.10;55.00
2749;DHT22;1382;52.142;11.618;2023-12-28T03:34:54;12.10;54.90
2749;DHT22;1382;52.142;11.618;2023-12-28T03:37:21;12.20;55.10
2749;DHT22;1382;52.142;11.618;2023-12-28T03:39:48;12.20;55.10
2749;DHT22;1382;52.142;11.618;2023-12-28T03:42:15;12.20;55.30
2749;DHT22;1382;52.142;11.618;2023-12-28T03:44:42;12.30;55.60
2749;DHT22;1382;52.142;11.618;2023-12-28T03:47:08;12.20;55.70
2749;DHT22;1382;52.142;11.618;2023-12-28T03:49:37;12.20;55.90
2749;DHT22;1382;52.142;11.618;2023-12-28T03:52:05;12.30;56.10
2749;DHT22;1382;52.142;11.618;2023-12-28T03:54:32;12.20;55.90
2749;DHT22;1382;52.142;11.618;2023-12-28T03:57:01;12.30;56.10
2749;DHT22;1382;52.142;11.618;2023-12-28T03:59:28;12.30;56.20
2749;DHT22;1382;52.142;11.618;2023-12-28T04:01:54;12.30;56.40
2749;DHT22;1382;52.142;11.618;2023-12-28T04:04:21;12.30;56.60
2749;DHT22;1382;52.142;11.618;2023-12-28T04:06:49;12.30;56.80
2749;DHT22;1382;52.142;11.618;2023-12-28T04:09:16;12.30;56.90
2749;DHT22;1382;52.142;11.618;2023-12-28T04:11:43;12.30;57.00
2749;DHT22;1382;52.142;11.618;2023-12-28T04:14:10;12.40;57.20
2749;DHT22;1382;52.142;11.618;2023-12-28T04:16:37;12.40;57.20
2749;DHT22;1382;52.142;11.618;2023-12-28T04:19:04;12.40;57.40
2749;DHT22;1382;52.142;11.618;2023-12-28T04:21:31;12.40;57.40
2749;DHT22;1382;52.142;11.618;2023-12-28T04:23:59;12.60;57.70
2749;DHT22;1382;52.142;11.618;2023-12-28T04:26:26;12.40;57.60
2749;DHT22;1382;52.142;11.618;2023-12-28T04:28:53;12.40;57.60
2749;DHT22;1382;52.142;11.618;2023-12-28T04:31:20;12.40;57.70
2749;DHT22;1382;52.142;11.618;2023-12-28T04:33:48;12.40;57.80
2749;DHT22;1382;52.142;11.618;2023-12-28T04:36:15;12.40;57.80
2749;DHT22;1382;52.142;11.618;2023-12-28T04:38:41;12.50;57.90
2749;DHT22;1382;52.142;11.618;2023-12-28T04:41:10;12.50;57.90
2749;DHT22;1382;52.142;11.618;2023-12-28T04:43:38;12.50;57.90
2749;DHT22;1382;52.142;11.618;2023-12-28T04:46:05;12.50;57.90
2749;DHT22;1382;52.142;11.618;2023-12-28T04:48:32;12.50;57.90
2749;DHT22;1382;52.142;11.618;2023-12-28T04:51:02;12.70;58.10
2749;DHT22;1382;52.142;11.618;2023-12-28T04:53:29;12.50;57.90
2749;DHT22;1382;52.142;11.618;2023-12-28T04:55:59;12.50;58.00
2749;DHT22;1382;52.142;11.618;2023-12-28T04:58:27;12.50;58.00
2749;DHT22;1382;52.142;11.618;2023-12-28T05:00:54;12.50;58.00
2749;DHT22;1382;52.142;11.618;2023-12-28T05:03:21;12.50;58.10
2749;DHT22;1382;52.142;11.618;2023-12-28T05:05:48;12.50;58.10
2749;DHT22;1382;52.142;11.618;2023-12-28T05:08:15;12.50;58.10
2749;DHT22;1382;52.142;11.618;2023-12-28T05:10:41;12.70;58.30
2749;DHT22;1382;52.142;11.618;2023-12-28T05:13:08;12.50;58.20
2749;DHT22;1382;52.142;11.618;2023-12-28T05:15:36;12.70;58.40
2749;DHT22;1382;52.142;11.618;2023-12-28T05:18:06;12.50;58.20
2749;DHT22;1382;52.142;11.618;2023-12-28T05:20:34;12.70;58.40
2749;DHT22;1382;52.142;11.618;2023-12-28T05:23:01;12.50;58.20
2749;DHT22;1382;52.142;11.618;2023-12-28T05:25:28;12.50;58.10
2749;DHT22;1382;52.142;11.618;2023-12-28T05:27:54;12.50;58.10
2749;DHT22;1382;52.142;11.618;2023-12-28T05:30:21;12.50;58.00
2749;DHT22;1382;52.142;11.618;2023-12-28T05:32:50;12.50;57.90
2749;DHT22;1382;52.142;11.618;2023-12-28T05:35:17;12.60;57.90
2749;DHT22;1382;52.142;11.618;2023-12-28T05:37:44;12.60;58.00
2749;DHT22;1382;52.142;11.618;2023-12-28T05:40:11;12.50;58.00
2749;DHT22;1382;52.142;11.618;2023-12-28T05:42:38;12.50;58.00
2749;DHT22;1382;52.142;11.618;2023-12-28T05:45:06;12.50;58.00
2749;DHT22;1382;52.142;11.618;2023-12-28T05:47:33;12.60;58.00
2749;DHT22;1382;52.142;11.618;2023-12-28T05:50:01;12.50;57.90
2749;DHT22;1382;52.142;11.618;2023-12-28T05:52:28;12.60;58.00
2749;DHT22;1382;52.142;11.618;2023-12-28T05:54:55;12.70;58.00
2749;DHT22;1382;52.142;11.618;2023-12-28T05:57:22;12.50;57.80
2749;DHT22;1382;52.142;11.618;2023-12-28T05:59:49;12.50;57.70
2749;DHT22;1382;52.142;11.618;2023-12-28T06:02:17;12.50;57.60
2749;DHT22;1382;52.142;11.618;2023-12-28T06:04:43;12.50;57.70
2749;DHT22;1382;52.142;11.618;2023-12-28T06:07:12;12.50;57.60
2749;DHT22;1382;52.142;11.618;2023-12-28T06:09:39;12.50;57.50
2749;DHT22;1382;52.142;11.618;2023-12-28T06:12:06;12.40;57.50
2749;DHT22;1382;52.142;11.618;2023-12-28T06:14:33;12.40;57.50
2749;DHT22;1382;52.142;11.618;2023-12-28T06:17:00;12.40;57.50
2749;DHT22;1382;52.142;11.618;2023-12-28T06:19:27;12.30;57.40
2749;DHT22;1382;52.142;11.618;2023-12-28T06:21:54;12.40;57.50
2749;DHT22;1382;52.142;11.618;2023-12-28T06:24:22;12.30;57.50
2749;DHT22;1382;52.142;11.618;2023-12-28T06:26:49;12.30;57.50
2749;DHT22;1382;52.142;11.618;2023-12-28T06:29:16;12.30;57.60
2749;DHT22;1382;52.142;11.618;2023-12-28T06:31:43;12.30;57.60
2749;DHT22;1382;52.142;11.618;2023-12-28T06:34:10;12.40;57.70
2749;DHT22;1382;52.142;11.618;2023-12-28T06:36:37;12.20;57.70
2749;DHT22;1382;52.142;11.618;2023-12-28T06:39:04;12.20;57.70
2749;DHT22;1382;52.142;11.618;2023-12-28T06:41:32;12.20;57.70
2749;DHT22;1382;52.142;11.618;2023-12-28T06:44:00;12.10;57.60
2749;DHT22;1382;52.142;11.618;2023-12-28T06:46:26;12.10;57.70
2749;DHT22;1382;52.142;11.618;2023-12-28T06:48:53;12.10;57.70
2749;DHT22;1382;52.142;11.618;2023-12-28T06:51:21;12.30;58.00
2749;DHT22;1382;52.142;11.618;2023-12-28T06:53:48;12.10;57.80
2749;DHT22;1382;52.142;11.618;2023-12-28T06:56:15;12.10;57.90
2749;DHT22;1382;52.142;11.618;2023-12-28T06:58:43;12.10;57.90
2749;DHT22;1382;52.142;11.618;2023-12-28T07:01:10;12.10;57.90
2749;DHT22;1382;52.142;11.618;2023-12-28T07:03:37;12.20;58.00
2749;DHT22;1382;52.142;11.618;2023-12-28T07:06:04;12.00;57.90
2749;DHT22;1382;52.142;11.618;2023-12-28T07:08:31;12.00;57.80
2749;DHT22;1382;52.142;11.618;2023-12-28T07:11:02;12.00;57.90
2749;DHT22;1382;52.142;11.618;2023-12-28T07:13:29;12.00;57.90
2749;DHT22;1382;52.142;11.618;2023-12-28T07:15:57;12.00;57.80
2749;DHT22;1382;52.142;11.618;2023-12-28T07:18:26;12.00;57.80
2749;DHT22;1382;52.142;11.618;2023-12-28T07:20:54;12.00;57.80
2749;DHT22;1382;52.142;11.618;2023-12-28T07:23:21;12.00;57.90
2749;DHT22;1382;52.142;11.618;2023-12-28T07:25:48;12.00;57.90
2749;DHT22;1382;52.142;11.618;2023-12-28T07:28:15;11.90;57.80
2749;DHT22;1382;52.142;11.618;2023-12-28T07:30:41;11.90;57.80
2749;DHT22;1382;52.142;11.618;2023-12-28T07:33:10;11.90;57.90
2749;DHT22;1382;52.142;11.618;2023-12-28T07:35:37;11.90;57.90
2749;DHT22;1382;52.142;11.618;2023-12-28T07:38:04;11.90;57.90
2749;DHT22;1382;52.142;11.618;2023-12-28T07:40:31;11.90;57.90
2749;DHT22;1382;52.142;11.618;2023-12-28T07:42:58;11.90;58.00
2749;DHT22;1382;52.142;11.618;2023-12-28T07:45:25;11.80;57.90
2749;DHT22;1382;52.142;11.618;2023-12-28T07:47:52;11.80;58.00
2749;DHT22;1382;52.142;11.618;2023-12-28T07:50:20;11.80;58.00
2749;DHT22;1382;52.142;11.618;2023-12-28T07:52:48;11.80;58.00
2749;DHT22;1382;52.142;11.618;2023-12-28T07:55:15;11.80;58.10
2749;DHT22;1382;52.142;11.618;2023-12-28T07:57:43;12.00;58.30
2749;DHT22;1382;52.142;11.618;2023-12-28T08:00:10;11.80;58.20
2749;DHT22;1382;52.142;11.618;2023-12-28T08:02:38;11.80;58.20
2749;DHT22;1382;52.142;11.618;2023-12-28T08:05:05;11.80;58.20
2749;DHT22;1382;52.142;11.618;2023-12-28T08:07:37;11.80;58.20
2749;DHT22;1382;52.142;11.618;2023-12-28T08:10:05;11.80;58.20
2749;DHT22;1382;52.142;11.618;2023-12-28T08:12:32;11.80;58.20
2749;DHT22;1382;52.142;11.618;2023-12-28T08:14:59;11.80;58.20
2749;DHT22;1382;52.142;11.618;2023-12-28T08:17:26;11.80;58.20
2749;DHT22;1382;52.142;11.618;2023-12-28T08:19:53;11.80;58.20
2749;DHT22;1382;52.142;11.618;2023-12-28T08:22:20;11.80;58.20
2749;DHT22;1382;52.142;11.618;2023-12-28T08:24:48;11.80;58.30
2749;DHT22;1382;52.142;11.618;2023-12-28T08:27:15;11.80;58.30
2749;DHT22;1382;52.142;11.618;2023-12-28T08:29:42;11.70;58.20
2749;DHT22;1382;52.142;11.618;2023-12-28T08:32:09;11.90;58.30
2749;DHT22;1382;52.142;11.618;2023-12-28T08:34:36;11.80;58.30
2749;DHT22;1382;52.142;11.618;2023-12-28T08:37:03;11.80;58.30
2749;DHT22;1382;52.142;11.618;2023-12-28T08:39:31;11.80;58.30
2749;DHT22;1382;52.142;11.618;2023-12-28T08:42:00;11.80;58.40
2749;DHT22;1382;52.142;11.618;2023-12-28T08:44:26;11.80;58.40
2749;DHT22;1382;52.142;11.618;2023-12-28T08:46:53;11.80;58.30
2749;DHT22;1382;52.142;11.618;2023-12-28T08:49:20;11.80;58.30
2749;DHT22;1382;52.142;11.618;2023-12-28T08:51:47;12.00;58.50
2749;DHT22;1382;52.142;11.618;2023-12-28T08:54:14;11.80;58.40
2749;DHT22;1382;52.142;11.618;2023-12-28T08:56:41;11.80;58.40
2749;DHT22;1382;52.142;11.618;2023-12-28T08:59:09;11.80;58.30
2749;DHT22;1382;52.142;11.618;2023-12-28T09:01:36;11.80;58.20
2749;DHT22;1382;52.142;11.618;2023-12-28T09:04:03;11.80;58.30
2749;DHT22;1382;52.142;11.618;2023-12-28T09:06:29;11.80;58.30
2749;DHT22;1382;52.142;11.618;2023-12-28T09:08:58;11.80;58.30
2749;DHT22;1382;52.142;11.618;2023-12-28T09:11:25;11.80;58.40
2749;DHT22;1382;52.142;11.618;2023-12-28T09:13:52;11.90;58.50
2749;DHT22;1382;52.142;11.618;2023-12-28T09:16:20;11.90;58.50
2749;DHT22;1382;52.142;11.618;2023-12-28T09:18:47;11.90;58.50
2749;DHT22;1382;52.142;11.618;2023-12-28T09:21:14;11.90;58.40
2749;DHT22;1382;52.142;11.618;2023-12-28T09:23:41;11.90;58.30
2749;DHT22;1382;52.142;11.618;2023-12-28T09:26:08;12.00;58.50
2749;DHT22;1382;52.142;11.618;2023-12-28T09:28:35;12.00;58.40
2749;DHT22;1382;52.142;11.618;2023-12-28T09:31:02;12.00;58.40
2749;DHT22;1382;52.142;11.618;2023-12-28T09:33:30;12.00;58.30
2749;DHT22;1382;52.142;11.618;2023-12-28T09:35:58;12.00;58.30
2749;DHT22;1382;52.142;11.618;2023-12-28T09:38:25;12.00;58.20
2749;DHT22;1382;52.142;11.618;2023-12-28T09:40:52;12.00;58.10
2749;DHT22;1382;52.142;11.618;2023-12-28T09:43:22;12.00;58.00
2749;DHT22;1382;52.142;11.618;2023-12-28T09:45:49;12.00;57.90
2749;DHT22;1382;52.142;11.618;2023-12-28T09:48:17;12.00;57.90
2749;DHT22;1382;52.142;11.618;2023-12-28T09:50:48;12.00;58.00
2749;DHT22;1382;52.142;11.618;2023-12-28T09:53:15;12.00;57.90
2749;DHT22;1382;52.142;11.618;2023-12-28T09:55:42;12.00;57.70
2749;DHT22;1382;52.142;11.618;2023-12-28T09:58:10;12.00;57.70
2749;DHT22;1382;52.142;11.618;2023-12-28T10:00:40;12.00;57.80
2749;DHT22;1382;52.142;11.618;2023-12-28T10:03:07;12.00;58.00
2749;DHT22;1382;52.142;11.618;2023-12-28T10:05:33;12.10;58.20
2749;DHT22;1382;52.142;11.618;2023-12-28T10:08:02;12.10;58.00
2749;DHT22;1382;52.142;11.618;2023-12-28T10:10:29;12.00;57.90
2749;DHT22;1382;52.142;11.618;2023-12-28T10:12:55;12.10;57.70
2749;DHT22;1382;52.142;11.618;2023-12-28T10:15:23;12.10;57.70
2749;DHT22;1382;52.142;11.618;2023-12-28T10:17:51;12.10;57.70
2749;DHT22;1382;52.142;11.618;2023-12-28T10:20:18;12.20;57.90
2749;DHT22;1382;52.142;11.618;2023-12-28T10:22:45;12.20;57.90
2749;DHT22;1382;52.142;11.618;2023-12-28T10:25:13;12.20;57.50
2749;DHT22;1382;52.142;11.618;2023-12-28T10:27:40;12.30;57.50
2749;DHT22;1382;52.142;11.618;2023-12-28T10:30:07;12.30;57.70
2749;DHT22;1382;52.142;11.618;2023-12-28T10:32:35;12.30;57.80
2749;DHT22;1382;52.142;11.618;2023-12-28T10:35:03;12.30;57.50
2749;DHT22;1382;52.142;11.618;2023-12-28T10:37:32;12.30;57.50
2749;DHT22;1382;52.142;11.618;2023-12-28T10:39:59;12.40;57.60
2749;DHT22;1382;52.142;11.618;2023-12-28T10:42:32;12.40;57.40
2749;DHT22;1382;52.142;11.618;2023-12-28T10:45:03;12.50;57.50
2749;DHT22;1382;52.142;11.618;2023-12-28T10:47:31;12.50;57.80
2749;DHT22;1382;52.142;11.618;2023-12-28T10:50:02;12.50;57.40
2749;DHT22;1382;52.142;11.618;2023-12-28T10:52:30;12.60;57.40
2749;DHT22;1382;52.142;11.618;2023-12-28T10:55:08;12.60;57.30
2749;DHT22;1382;52.142;11.618;2023-12-28T10:57:52;12.70;57.20
2749;DHT22;1382;52.142;11.618;2023-12-28T11:00:22;12.70;57.50
2749;DHT22;1382;52.142;11.618;2023-12-28T11:02:52;12.70;57.50
2749;DHT22;1382;52.142;11.618;2023-12-28T11:05:21;12.80;57.30
2749;DHT22;1382;52.142;11.618;2023-12-28T11:07:50;13.00;57.40
2749;DHT22;1382;52.142;11.618;2023-12-28T11:10:17;12.90;57.30
2749;DHT22;1382;52.142;11.618;2023-12-28T11:12:47;13.00;57.40
2749;DHT22;1382;52.142;11.618;2023-12-28T11:15:14;13.10;57.90
2749;DHT22;1382;52.142;11.618;2023-12-28T11:17:42;13.10;57.80
2749;DHT22;1382;52.142;11.618;2023-12-28T11:20:10;13.10;57.40
2749;DHT22;1382;52.142;11.618;2023-12-28T11:22:38;13.20;57.30
2749;DHT22;1382;52.142;11.618;2023-12-28T11:25:06;13.30;57.00
2749;DHT22;1382;52.142;11.618;2023-12-28T11:27:34;13.30;56.90
2749;DHT22;1382;52.142;11.618;2023-12-28T11:30:04;13.40;57.20
2749;DHT22;1382;52.142;11.618;2023-12-28T11:32:32;13.40;57.60
2749;DHT22;1382;52.142;11.618;2023-12-28T11:34:59;13.40;56.80
2749;DHT22;1382;52.142;11.618;2023-12-28T11:37:27;13.40;56.90
2749;DHT22;1382;52.142;11.618;2023-12-28T11:39:55;13.50;56.80
2749;DHT22;1382;52.142;11.618;2023-12-28T11:42:22;13.50;57.00
2749;DHT22;1382;52.142;11.618;2023-12-28T11:44:54;13.50;56.80
2749;DHT22;1382;52.142;11.618;2023-12-28T11:47:23;13.50;56.60
2749;DHT22;1382;52.142;11.618;2023-12-28T11:49:51;13.60;56.40
2749;DHT22;1382;52.142;11.618;2023-12-28T11:52:25;13.60;56.20
2749;DHT22;1382;52.142;11.618;2023-12-28T11:54:52;13.60;55.70
2749;DHT22;1382;52.142;11.618;2023-12-28T11:57:19;13.60;56.20
2749;DHT22;1382;52.142;11.618;2023-12-28T11:59:48;13.70;56.40
2749;DHT22;1382;52.142;11.618;2023-12-28T12:02:19;13.70;56.10
2749;DHT22;1382;52.142;11.618;2023-12-28T12:04:48;13.70;56.80
2749;DHT22;1382;52.142;11.618;2023-12-28T12:07:15;13.70;56.40
2749;DHT22;1382;52.142;11.618;2023-12-28T12:09:42;13.80;56.20
2749;DHT22;1382;52.142;11.618;2023-12-28T12:12:09;13.80;56.50
2749;DHT22;1382;52.142;11.618;2023-12-28T12:14:37;13.90;56.20
2749;DHT22;1382;52.142;11.618;2023-12-28T12:17:04;13.90;56.10
2749;DHT22;1382;52.142;11.618;2023-12-28T12:19:31;14.00;56.00
2749;DHT22;1382;52.142;11.618;2023-12-28T12:21:59;14.00;55.30
2749;DHT22;1382;52.142;11.618;2023-12-28T12:24:26;14.00;55.70
2749;DHT22;1382;52.142;11.618;2023-12-28T12:26:53;14.00;56.20
2749;DHT22;1382;52.142;11.618;2023-12-28T12:29:20;14.10;55.70
2749;DHT22;1382;52.142;11.618;2023-12-28T12:31:54;14.10;55.40
2749;DHT22;1382;52.142;11.618;2023-12-28T12:34:21;14.20;55.40
2749;DHT22;1382;52.142;11.618;2023-12-28T12:36:49;14.20;55.20
2749;DHT22;1382;52.142;11.618;2023-12-28T12:39:17;14.30;55.10
2749;DHT22;1382;52.142;11.618;2023-12-28T12:41:45;14.20;55.30
2749;DHT22;1382;52.142;11.618;2023-12-28T12:44:12;14.30;54.80
2749;DHT22;1382;52.142;11.618;2023-12-28T12:46:39;14.50;55.30
2749;DHT22;1382;52.142;11.618;2023-12-28T12:49:06;14.30;55.30
2749;DHT22;1382;52.142;11.618;2023-12-28T12:51:33;14.40;54.50
2749;DHT22;1382;52.142;11.618;2023-12-28T12:54:02;14.30;54.90
2749;DHT22;1382;52.142;11.618;2023-12-28T12:56:31;14.40;54.60
2749;DHT22;1382;52.142;11.618;2023-12-28T12:58:58;14.40;54.40
2749;DHT22;1382;52.142;11.618;2023-12-28T13:01:25;14.40;54.50
2749;DHT22;1382;52.142;11.618;2023-12-28T13:03:52;14.40;54.80
2749;DHT22;1382;52.142;11.618;2023-12-28T13:06:19;14.40;55.50
2749;DHT22;1382;52.142;11.618;2023-12-28T13:08:45;14.50;55.70
2749;DHT22;1382;52.142;11.618;2023-12-28T13:11:12;14.50;54.90
2749;DHT22;1382;52.142;11.618;2023-12-28T13:13:41;14.50;54.90
2749;DHT22;1382;52.142;11.618;2023-12-28T13:16:08;14.50;54.90
2749;DHT22;1382;52.142;11.618;2023-12-28T13:18:35;14.60;54.60
2749;DHT22;1382;52.142;11.618;2023-12-28T13:21:02;14.60;54.40
2749;DHT22;1382;52.142;11.618;2023-12-28T13:23:29;14.60;55.10
2749;DHT22;1382;52.142;11.618;2023-12-28T13:25:56;14.60;54.80
2749;DHT22;1382;52.142;11.618;2023-12-28T13:28:23;14.60;54.90
2749;DHT22;1382;52.142;11.618;2023-12-28T13:30:51;14.60;54.60
2749;DHT22;1382;52.142;11.618;2023-12-28T13:33:18;14.60;54.70
2749;DHT22;1382;52.142;11.618;2023-12-28T13:35:45;14.70;55.00
2749;DHT22;1382;52.142;11.618;2023-12-28T13:38:11;14.70;55.40
2749;DHT22;1382;52.142;11.618;2023-12-28T13:40:38;14.70;54.40
2749;DHT22;1382;52.142;11.618;2023-12-28T13:43:05;14.70;55.00
2749;DHT22;1382;52.142;11.618;2023-12-28T13:45:32;14.60;54.60
2749;DHT22;1382;52.142;11.618;2023-12-28T13:48:00;14.70;54.30
2749;DHT22;1382;52.142;11.618;2023-12-28T13:50:27;14.70;54.10
2749;DHT22;1382;52.142;11.618;2023-12-28T13:52:54;14.70;54.50
2749;DHT22;1382;52.142;11.618;2023-12-28T13:55:21;14.80;54.10
2749;DHT22;1382;52.142;11.618;2023-12-28T13:57:47;14.70;54.10
2749;DHT22;1382;52.142;11.618;2023-12-28T14:00:15;14.70;54.70
2749;DHT22;1382;52.142;11.618;2023-12-28T14:02:42;14.70;54.20
2749;DHT22;1382;52.142;11.618;2023-12-28T14:05:11;14.70;54.50
2749;DHT22;1382;52.142;11.618;2023-12-28T14:07:40;14.70;54.60
2749;DHT22;1382;52.142;11.618;2023-12-28T14:10:07;14.80;54.80
2749;DHT22;1382;52.142;11.618;2023-12-28T14:12:34;14.70;54.50
2749;DHT22;1382;52.142;11.618;2023-12-28T14:15:02;14.80;54.10
2749;DHT22;1382;52.142;11.618;2023-12-28T14:17:32;14.80;54.20
2749;DHT22;1382;52.142;11.618;2023-12-28T14:19:58;14.80;54.00
2749;DHT22;1382;52.142;11.618;2023-12-28T14:22:27;14.80;54.50
2749;DHT22;1382;52.142;11.618;2023-12-28T14:24:55;14.80;54.60
2749;DHT22;1382;52.142;11.618;2023-12-28T14:27:22;14.80;54.40
2749;DHT22;1382;52.142;11.618;2023-12-28T14:29:50;14.80;54.40
2749;DHT22;1382;52.142;11.618;2023-12-28T14:32:17;14.80;54.50
2749;DHT22;1382;52.142;11.618;2023-12-28T14:34:44;14.80;54.30
2749;DHT22;1382;52.142;11.618;2023-12-28T14:37:11;14.70;54.80
2749;DHT22;1382;52.142;11.618;2023-12-28T14:39:39;14.70;54.40
2749;DHT22;1382;52.142;11.618;2023-12-28T14:42:06;14.70;54.00
2749;DHT22;1382;52.142;11.618;2023-12-28T14:44:33;14.70;54.40
2749;DHT22;1382;52.142;11.618;2023-12-28T14:47:00;14.70;54.40
2749;DHT22;1382;52.142;11.618;2023-12-28T14:49:27;14.60;54.10
2749;DHT22;1382;52.142;11.618;2023-12-28T14:51:54;14.60;54.40
2749;DHT22;1382;52.142;11.618;2023-12-28T14:54:21;14.50;54.30
2749;DHT22;1382;52.142;11.618;2023-12-28T14:56:49;14.50;53.90
2749;DHT22;1382;52.142;11.618;2023-12-28T14:59:21;14.40;53.70
2749;DHT22;1382;52.142;11.618;2023-12-28T15:01:48;14.30;53.90
2749;DHT22;1382;52.142;11.618;2023-12-28T15:04:15;14.40;53.60
2749;DHT22;1382;52.142;11.618;2023-12-28T15:06:42;14.20;53.80
2749;DHT22;1382;52.142;11.618;2023-12-28T15:09:09;14.20;53.90
2749;DHT22;1382;52.142;11.618;2023-12-28T15:11:36;14.20;54.10
2749;DHT22;1382;52.142;11.618;2023-12-28T15:14:16;13.90;54.30
2749;DHT22;1382;52.142;11.618;2023-12-28T15:16:44;14.10;54.40
2749;DHT22;1382;52.142;11.618;2023-12-28T15:19:12;14.10;54.70
2749;DHT22;1382;52.142;11.618;2023-12-28T15:21:39;14.00;54.50
2749;DHT22;1382;52.142;11.618;2023-12-28T15:24:07;14.00;54.60
2749;DHT22;1382;52.142;11.618;2023-12-28T15:26:34;14.00;54.90
2749;DHT22;1382;52.142;11.618;2023-12-28T15:29:01;14.00;55.40
2749;DHT22;1382;52.142;11.618;2023-12-28T15:31:29;14.10;55.10
2749;DHT22;1382;52.142;11.618;2023-12-28T15:33:56;14.10;55.40
2749;DHT22;1382;52.142;11.618;2023-12-28T15:36:23;13.90;55.00
2749;DHT22;1382;52.142;11.618;2023-12-28T15:38:50;13.90;54.90
2749;DHT22;1382;52.142;11.618;2023-12-28T15:41:17;13.90;54.80
2749;DHT22;1382;52.142;11.618;2023-12-28T15:43:43;13.90;54.90
2749;DHT22;1382;52.142;11.618;2023-12-28T15:46:10;13.90;55.60